sensor_id;sensor_type;location;lat;lon;timestamp;P1;durP1;ratioP1;P2;durP2;ratioP2
43124;SDS011;49182;50.788;7.318;2022-07-12T00:01:50;11.98;;;7.55;;
43124;SDS011;49182;50.788;7.318;2022-07-12T00:04:16;12.20;;;8.13;;
43124;SDS011;49182;50.788;7.318;2022-07-12T00:06:43;16.40;;;8.55;;
43124;SDS011;49182;50.788;7.318;2022-07-12T00:09:10;12.75;;;7.75;;
43124;SDS011;49182;50.788;7.318;2022-07-12T00:11:37;11.32;;;7.88;;
43124;SDS011;49182;50.788;7.318;2022-07-12T00:14:06;12.45;;;8.27;;
43124;SDS011;49182;50.788;7.318;2022-07-12T00:16:33;12.30;;;7.82;;
43124;SDS011;49182;50.788;7.318;2022-07-12T00:19:00;12.38;;;8.18;;
43124;SDS011;49182;50.788;7.318;2022-07-12T00:21:27;15.55;;;9.00;;
43124;SDS011;49182;50.788;7.318;2022-07-12T00:23:54;11.30;;;8.52;;
43124;SDS011;49182;50.788;7.318;2022-07-12T00:26:20;13.65;;;7.95;;
43124;SDS011;49182;50.788;7.318;2022-07-12T00:28:47;14.35;;;8.75;;
43124;SDS011;49182;50.788;7.318;2022-07-12T00:31:15;11.75;;;7.72;;
43124;SDS011;49182;50.788;7.318;2022-07-12T00:33:42;12.45;;;8.07;;
43124;SDS011;49182;50.788;7.318;2022-07-12T00:36:08;14.68;;;9.00;;
43124;SDS011;49182;50.788;7.318;2022-07-12T00:38:35;12.75;;;7.97;;
43124;SDS011;49182;50.788;7.318;2022-07-12T00:41:02;11.00;;;7.80;;
43124;SDS011;49182;50.788;7.318;2022-07-12T00:43:29;11.27;;;7.40;;
43124;SDS011;49182;50.788;7.318;2022-07-12T00:45:55;13.88;;;8.63;;
43124;SDS011;49182;50.788;7.318;2022-07-12T00:48:24;11.38;;;7.53;;
43124;SDS011;49182;50.788;7.318;2022-07-12T00:50:51;11.35;;;8.27;;
43124;SDS011;49182;50.788;7.318;2022-07-12T00:53:17;12.40;;;7.55;;
43124;SDS011;49182;50.788;7.318;2022-07-12T00:55:45;10.85;;;7.10;;
43124;SDS011;49182;50.788;7.318;2022-07-12T00:58:11;12.90;;;7.45;;
43124;SDS011;49182;50.788;7.318;2022-07-12T01:00:38;13.07;;;7.30;;
43124;SDS011;49182;50.788;7.318;2022-07-12T01:03:04;11.25;;;7.47;;
43124;SDS011;49182;50.788;7.318;2022-07-12T01:05:33;11.00;;;7.80;;
43124;SDS011;49182;50.788;7.318;2022-07-12T01:07:59;10.98;;;7.45;;
43124;SDS011;49182;50.788;7.318;2022-07-12T01:10:27;9.90;;;6.53;;
43124;SDS011;49182;50.788;7.318;2022-07-12T01:12:56;10.63;;;7.10;;
43124;SDS011;49182;50.788;7.318;2022-07-12T01:15:24;11.82;;;6.80;;
43124;SDS011;49182;50.788;7.318;2022-07-12T01:17:52;12.30;;;7.70;;
43124;SDS011;49182;50.788;7.318;2022-07-12T01:20:19;13.75;;;7.10;;
43124;SDS011;49182;50.788;7.318;2022-07-12T01:22:50;12.43;;;7.55;;
43124;SDS011;49182;50.788;7.318;2022-07-12T01:25:19;11.63;;;7.75;;
43124;SDS011;49182;50.788;7.318;2022-07-12T01:27:46;17.58;;;7.90;;
43124;SDS011;49182;50.788;7.318;2022-07-12T01:30:13;14.95;;;8.07;;
43124;SDS011;49182;50.788;7.318;2022-07-12T01:32:39;11.55;;;7.28;;
43124;SDS011;49182;50.788;7.318;2022-07-12T01:35:07;9.65;;;6.93;;
43124;SDS011;49182;50.788;7.318;2022-07-12T01:37:34;10.57;;;7.20;;
43124;SDS011;49182;50.788;7.318;2022-07-12T01:40:03;10.65;;;7.15;;
43124;SDS011;49182;50.788;7.318;2022-07-12T01:42:32;9.70;;;7.30;;
43124;SDS011;49182;50.788;7.318;2022-07-12T01:44:58;13.82;;;6.90;;
43124;SDS011;49182;50.788;7.318;2022-07-12T01:47:26;9.80;;;7.60;;
43124;SDS011;49182;50.788;7.318;2022-07-12T01:49:54;11.25;;;7.00;;
43124;SDS011;49182;50.788;7.318;2022-07-12T01:52:21;12.77;;;7.78;;
43124;SDS011;49182;50.788;7.318;2022-07-12T01:54:48;11.65;;;7.35;;
43124;SDS011;49182;50.788;7.318;2022-07-12T01:57:16;11.18;;;6.97;;
43124;SDS011;49182;50.788;7.318;2022-07-12T01:59:43;11.20;;;7.53;;
43124;SDS011;49182;50.788;7.318;2022-07-12T02:02:10;15.77;;;7.50;;
43124;SDS011;49182;50.788;7.318;2022-07-12T02:04:36;13.40;;;7.10;;
43124;SDS011;49182;50.788;7.318;2022-07-12T02:07:04;13.77;;;7.47;;
43124;SDS011;49182;50.788;7.318;2022-07-12T02:09:31;19.00;;;7.38;;
43124;SDS011;49182;50.788;7.318;2022-07-12T02:11:58;17.27;;;7.10;;
43124;SDS011;49182;50.788;7.318;2022-07-12T02:14:26;13.45;;;6.95;;
43124;SDS011;49182;50.788;7.318;2022-07-12T02:16:53;13.95;;;7.07;;
43124;SDS011;49182;50.788;7.318;2022-07-12T02:19:20;14.68;;;6.78;;
43124;SDS011;49182;50.788;7.318;2022-07-12T02:21:46;17.02;;;7.07;;
43124;SDS011;49182;50.788;7.318;2022-07-12T02:24:13;15.85;;;7.43;;
43124;SDS011;49182;50.788;7.318;2022-07-12T02:26:40;16.13;;;7.40;;
43124;SDS011;49182;50.788;7.318;2022-07-12T02:29:06;19.25;;;8.20;;
43124;SDS011;49182;50.788;7.318;2022-07-12T02:31:34;10.60;;;6.57;;
43124;SDS011;49182;50.788;7.318;2022-07-12T02:34:01;10.07;;;6.20;;
43124;SDS011;49182;50.788;7.318;2022-07-12T02:36:28;9.88;;;6.65;;
43124;SDS011;49182;50.788;7.318;2022-07-12T02:38:54;14.20;;;6.60;;
43124;SDS011;49182;50.788;7.318;2022-07-12T02:41:21;22.67;;;7.20;;
43124;SDS011;49182;50.788;7.318;2022-07-12T02:43:47;17.95;;;6.85;;
43124;SDS011;49182;50.788;7.318;2022-07-12T02:46:14;11.63;;;6.32;;
43124;SDS011;49182;50.788;7.318;2022-07-12T02:48:42;12.27;;;6.95;;
43124;SDS011;49182;50.788;7.318;2022-07-12T02:51:09;13.07;;;6.68;;
43124;SDS011;49182;50.788;7.318;2022-07-12T02:53:36;11.77;;;6.60;;
43124;SDS011;49182;50.788;7.318;2022-07-12T02:56:08;11.65;;;6.57;;
43124;SDS011;49182;50.788;7.318;2022-07-12T02:58:35;11.13;;;6.80;;
43124;SDS011;49182;50.788;7.318;2022-07-12T03:01:03;9.43;;;6.15;;
43124;SDS011;49182;50.788;7.318;2022-07-12T03:03:30;11.48;;;6.70;;
43124;SDS011;49182;50.788;7.318;2022-07-12T03:05:58;9.80;;;6.40;;
43124;SDS011;49182;50.788;7.318;2022-07-12T03:08:25;9.65;;;6.30;;
43124;SDS011;49182;50.788;7.318;2022-07-12T03:10:52;8.40;;;5.88;;
43124;SDS011;49182;50.788;7.318;2022-07-12T03:13:19;11.13;;;6.43;;
43124;SDS011;49182;50.788;7.318;2022-07-12T03:15:45;9.93;;;6.72;;
43124;SDS011;49182;50.788;7.318;2022-07-12T03:18:12;14.10;;;6.63;;
43124;SDS011;49182;50.788;7.318;2022-07-12T03:20:39;10.55;;;6.22;;
43124;SDS011;49182;50.788;7.318;2022-07-12T03:23:07;13.52;;;6.38;;
43124;SDS011;49182;50.788;7.318;2022-07-12T03:25:34;13.15;;;7.10;;
43124;SDS011;49182;50.788;7.318;2022-07-12T03:28:01;10.18;;;6.43;;
43124;SDS011;49182;50.788;7.318;2022-07-12T03:30:28;10.98;;;7.20;;
43124;SDS011;49182;50.788;7.318;2022-07-12T03:32:54;10.90;;;6.45;;
43124;SDS011;49182;50.788;7.318;2022-07-12T03:35:22;11.07;;;6.63;;
43124;SDS011;49182;50.788;7.318;2022-07-12T03:37:49;11.00;;;7.03;;
43124;SDS011;49182;50.788;7.318;2022-07-12T03:40:18;15.43;;;6.50;;
43124;SDS011;49182;50.788;7.318;2022-07-12T03:42:46;15.68;;;6.55;;
43124;SDS011;49182;50.788;7.318;2022-07-12T03:45:15;12.88;;;6.00;;
43124;SDS011;49182;50.788;7.318;2022-07-12T03:47:42;10.55;;;6.32;;
43124;SDS011;49182;50.788;7.318;2022-07-12T03:50:10;11.15;;;5.85;;
43124;SDS011;49182;50.788;7.318;2022-07-12T03:52:37;10.85;;;6.22;;
43124;SDS011;49182;50.788;7.318;2022-07-12T03:55:05;11.77;;;6.03;;
43124;SDS011;49182;50.788;7.318;2022-07-12T03:57:34;9.45;;;6.15;;
43124;SDS011;49182;50.788;7.318;2022-07-12T04:00:00;11.65;;;6.30;;
43124;SDS011;49182;50.788;7.318;2022-07-12T04:02:29;11.30;;;6.22;;
43124;SDS011;49182;50.788;7.318;2022-07-12T04:04:56;11.45;;;6.85;;
43124;SDS011;49182;50.788;7.318;2022-07-12T04:07:23;11.70;;;6.95;;
43124;SDS011;49182;50.788;7.318;2022-07-12T04:09:49;14.38;;;6.32;;
43124;SDS011;49182;50.788;7.318;2022-07-12T04:12:16;10.45;;;6.15;;
43124;SDS011;49182;50.788;7.318;2022-07-12T04:14:44;10.10;;;7.00;;
43124;SDS011;49182;50.788;7.318;2022-07-12T04:17:11;9.77;;;6.75;;
43124;SDS011;49182;50.788;7.318;2022-07-12T04:19:38;10.13;;;6.32;;
43124;SDS011;49182;50.788;7.318;2022-07-12T04:22:04;12.35;;;6.63;;
43124;SDS011;49182;50.788;7.318;2022-07-12T04:24:31;8.50;;;5.93;;
43124;SDS011;49182;50.788;7.318;2022-07-12T04:26:58;11.02;;;6.38;;
43124;SDS011;49182;50.788;7.318;2022-07-12T04:29:25;9.80;;;6.15;;
43124;SDS011;49182;50.788;7.318;2022-07-12T04:31:53;8.48;;;5.75;;
43124;SDS011;49182;50.788;7.318;2022-07-12T04:34:19;8.73;;;5.82;;
43124;SDS011;49182;50.788;7.318;2022-07-12T04:36:46;7.80;;;5.30;;
43124;SDS011;49182;50.788;7.318;2022-07-12T04:39:13;9.95;;;5.65;;
43124;SDS011;49182;50.788;7.318;2022-07-12T04:41:40;6.70;;;4.65;;
43124;SDS011;49182;50.788;7.318;2022-07-12T04:44:06;7.05;;;4.72;;
43124;SDS011;49182;50.788;7.318;2022-07-12T04:46:33;8.65;;;4.47;;
43124;SDS011;49182;50.788;7.318;2022-07-12T04:49:02;7.13;;;4.75;;
43124;SDS011;49182;50.788;7.318;2022-07-12T04:51:28;6.18;;;4.35;;
43124;SDS011;49182;50.788;7.318;2022-07-12T04:53:55;7.03;;;4.57;;
43124;SDS011;49182;50.788;7.318;2022-07-12T04:56:22;8.43;;;4.82;;
43124;SDS011;49182;50.788;7.318;2022-07-12T04:58:49;8.57;;;4.60;;
43124;SDS011;49182;50.788;7.318;2022-07-12T05:01:15;9.30;;;4.68;;
43124;SDS011;49182;50.788;7.318;2022-07-12T05:03:42;7.03;;;5.10;;
43124;SDS011;49182;50.788;7.318;2022-07-12T05:06:10;8.95;;;5.10;;
43124;SDS011;49182;50.788;7.318;2022-07-12T05:08:37;7.15;;;4.93;;
43124;SDS011;49182;50.788;7.318;2022-07-12T05:11:04;7.57;;;5.10;;
43124;SDS011;49182;50.788;7.318;2022-07-12T05:13:31;8.50;;;5.10;;
43124;SDS011;49182;50.788;7.318;2022-07-12T05:15:57;7.55;;;5.07;;
43124;SDS011;49182;50.788;7.318;2022-07-12T05:18:24;7.68;;;4.93;;
43124;SDS011;49182;50.788;7.318;2022-07-12T05:20:51;7.35;;;5.43;;
43124;SDS011;49182;50.788;7.318;2022-07-12T05:23:19;7.78;;;5.47;;
43124;SDS011;49182;50.788;7.318;2022-07-12T05:25:45;6.97;;;5.03;;
43124;SDS011;49182;50.788;7.318;2022-07-12T05:28:13;9.55;;;5.35;;
43124;SDS011;49182;50.788;7.318;2022-07-12T05:30:40;6.80;;;4.65;;
43124;SDS011;49182;50.788;7.318;2022-07-12T05:33:06;8.05;;;4.80;;
43124;SDS011;49182;50.788;7.318;2022-07-12T05:35:33;6.70;;;5.28;;
43124;SDS011;49182;50.788;7.318;2022-07-12T05:38:00;7.38;;;5.00;;
43124;SDS011;49182;50.788;7.318;2022-07-12T05:40:28;6.90;;;4.78;;
43124;SDS011;49182;50.788;7.318;2022-07-12T05:42:55;8.90;;;5.20;;
43124;SDS011;49182;50.788;7.318;2022-07-12T05:45:22;8.77;;;5.03;;
43124;SDS011;49182;50.788;7.318;2022-07-12T05:47:48;7.28;;;4.70;;
43124;SDS011;49182;50.788;7.318;2022-07-12T05:50:15;6.93;;;4.85;;
43124;SDS011;49182;50.788;7.318;2022-07-12T05:52:41;7.63;;;5.00;;
43124;SDS011;49182;50.788;7.318;2022-07-12T05:55:08;7.57;;;5.22;;
43124;SDS011;49182;50.788;7.318;2022-07-12T05:57:36;6.85;;;4.78;;
43124;SDS011;49182;50.788;7.318;2022-07-12T06:00:03;8.38;;;4.97;;
43124;SDS011;49182;50.788;7.318;2022-07-12T06:02:30;7.32;;;5.03;;
43124;SDS011;49182;50.788;7.318;2022-07-12T06:04:57;6.78;;;4.70;;
43124;SDS011;49182;50.788;7.318;2022-07-12T06:07:24;7.00;;;4.60;;
43124;SDS011;49182;50.788;7.318;2022-07-12T06:09:50;9.05;;;4.93;;
43124;SDS011;49182;50.788;7.318;2022-07-12T06:12:17;6.57;;;4.60;;
43124;SDS011;49182;50.788;7.318;2022-07-12T06:14:45;7.53;;;4.63;;
43124;SDS011;49182;50.788;7.318;2022-07-12T06:17:11;6.47;;;4.72;;
43124;SDS011;49182;50.788;7.318;2022-07-12T06:19:38;7.40;;;4.53;;
43124;SDS011;49182;50.788;7.318;2022-07-12T06:22:04;7.55;;;4.35;;
43124;SDS011;49182;50.788;7.318;2022-07-12T06:24:31;7.22;;;4.60;;
43124;SDS011;49182;50.788;7.318;2022-07-12T06:26:58;7.75;;;4.65;;
43124;SDS011;49182;50.788;7.318;2022-07-12T06:29:24;6.07;;;4.32;;
43124;SDS011;49182;50.788;7.318;2022-07-12T06:31:52;6.40;;;4.45;;
43124;SDS011;49182;50.788;7.318;2022-07-12T06:34:19;7.68;;;4.70;;
43124;SDS011;49182;50.788;7.318;2022-07-12T06:36:46;6.88;;;4.32;;
43124;SDS011;49182;50.788;7.318;2022-07-12T06:39:14;6.78;;;4.25;;
43124;SDS011;49182;50.788;7.318;2022-07-12T06:41:40;7.25;;;4.32;;
43124;SDS011;49182;50.788;7.318;2022-07-12T06:44:07;7.35;;;4.50;;
43124;SDS011;49182;50.788;7.318;2022-07-12T06:46:34;7.43;;;4.35;;
43124;SDS011;49182;50.788;7.318;2022-07-12T06:49:02;5.38;;;3.63;;
43124;SDS011;49182;50.788;7.318;2022-07-12T06:51:28;6.45;;;4.28;;
43124;SDS011;49182;50.788;7.318;2022-07-12T06:53:55;6.82;;;3.78;;
43124;SDS011;49182;50.788;7.318;2022-07-12T06:56:22;5.63;;;3.70;;
43124;SDS011;49182;50.788;7.318;2022-07-12T06:58:49;7.03;;;3.53;;
43124;SDS011;49182;50.788;7.318;2022-07-12T07:01:15;5.30;;;3.47;;
43124;SDS011;49182;50.788;7.318;2022-07-12T07:03:42;6.70;;;3.28;;
43124;SDS011;49182;50.788;7.318;2022-07-12T07:06:10;4.85;;;3.10;;
43124;SDS011;49182;50.788;7.318;2022-07-12T07:08:36;5.80;;;3.60;;
43124;SDS011;49182;50.788;7.318;2022-07-12T07:11:03;5.80;;;3.38;;
43124;SDS011;49182;50.788;7.318;2022-07-12T07:13:30;5.22;;;3.42;;
43124;SDS011;49182;50.788;7.318;2022-07-12T07:15:56;4.57;;;3.08;;
43124;SDS011;49182;50.788;7.318;2022-07-12T07:18:23;5.97;;;2.88;;
43124;SDS011;49182;50.788;7.318;2022-07-12T07:20:51;6.05;;;3.10;;
43124;SDS011;49182;50.788;7.318;2022-07-12T07:23:19;4.68;;;2.75;;
43124;SDS011;49182;50.788;7.318;2022-07-12T07:25:46;8.52;;;3.15;;
43124;SDS011;49182;50.788;7.318;2022-07-12T07:28:12;5.40;;;3.00;;
43124;SDS011;49182;50.788;7.318;2022-07-12T07:30:39;4.50;;;2.95;;
43124;SDS011;49182;50.788;7.318;2022-07-12T07:33:06;4.25;;;2.55;;
43124;SDS011;49182;50.788;7.318;2022-07-12T07:35:33;4.22;;;2.40;;
43124;SDS011;49182;50.788;7.318;2022-07-12T07:37:59;5.60;;;2.70;;
43124;SDS011;49182;50.788;7.318;2022-07-12T07:40:27;4.85;;;2.67;;
43124;SDS011;49182;50.788;7.318;2022-07-12T07:42:54;3.88;;;2.40;;
43124;SDS011;49182;50.788;7.318;2022-07-12T07:45:21;5.55;;;2.33;;
43124;SDS011;49182;50.788;7.318;2022-07-12T07:47:48;4.82;;;2.45;;
43124;SDS011;49182;50.788;7.318;2022-07-12T07:50:35;4.68;;;1.88;;
43124;SDS011;49182;50.788;7.318;2022-07-12T07:53:02;3.38;;;2.20;;
43124;SDS011;49182;50.788;7.318;2022-07-12T07:55:30;4.22;;;2.15;;
43124;SDS011;49182;50.788;7.318;2022-07-12T07:57:57;3.50;;;2.15;;
43124;SDS011;49182;50.788;7.318;2022-07-12T08:00:23;4.65;;;2.25;;
43124;SDS011;49182;50.788;7.318;2022-07-12T08:02:50;4.38;;;2.78;;
43124;SDS011;49182;50.788;7.318;2022-07-12T08:05:17;5.95;;;2.50;;
43124;SDS011;49182;50.788;7.318;2022-07-12T08:07:43;3.63;;;2.20;;
43124;SDS011;49182;50.788;7.318;2022-07-12T08:10:20;4.40;;;2.80;;
43124;SDS011;49182;50.788;7.318;2022-07-12T08:12:49;4.28;;;2.83;;
43124;SDS011;49182;50.788;7.318;2022-07-12T08:15:15;4.70;;;2.97;;
43124;SDS011;49182;50.788;7.318;2022-07-12T08:17:42;5.65;;;3.33;;
43124;SDS011;49182;50.788;7.318;2022-07-12T08:20:18;5.05;;;2.85;;
43124;SDS011;49182;50.788;7.318;2022-07-12T08:23:05;5.25;;;3.20;;
43124;SDS011;49182;50.788;7.318;2022-07-12T08:25:31;4.60;;;2.97;;
43124;SDS011;49182;50.788;7.318;2022-07-12T08:27:59;4.20;;;2.40;;
43124;SDS011;49182;50.788;7.318;2022-07-12T08:30:26;4.22;;;2.38;;
43124;SDS011;49182;50.788;7.318;2022-07-12T08:32:53;4.15;;;2.33;;
43124;SDS011;49182;50.788;7.318;2022-07-12T08:35:20;4.28;;;2.55;;
43124;SDS011;49182;50.788;7.318;2022-07-12T08:37:47;3.33;;;2.05;;
43124;SDS011;49182;50.788;7.318;2022-07-12T08:40:14;4.50;;;2.20;;
43124;SDS011;49182;50.788;7.318;2022-07-12T08:42:41;3.40;;;2.08;;
43124;SDS011;49182;50.788;7.318;2022-07-12T08:45:10;17.52;;;4.03;;
43124;SDS011;49182;50.788;7.318;2022-07-12T08:47:37;4.45;;;1.60;;
43124;SDS011;49182;50.788;7.318;2022-07-12T08:50:11;2.65;;;1.45;;
43124;SDS011;49182;50.788;7.318;2022-07-12T08:52:39;2.20;;;1.20;;
43124;SDS011;49182;50.788;7.318;2022-07-12T08:55:17;3.50;;;1.30;;
43124;SDS011;49182;50.788;7.318;2022-07-12T08:57:46;2.60;;;1.20;;
43124;SDS011;49182;50.788;7.318;2022-07-12T09:00:15;2.40;;;1.40;;
43124;SDS011;49182;50.788;7.318;2022-07-12T09:02:46;1.63;;;0.95;;
43124;SDS011;49182;50.788;7.318;2022-07-12T09:05:14;2.85;;;1.10;;
43124;SDS011;49182;50.788;7.318;2022-07-12T09:07:42;2.42;;;1.13;;
43124;SDS011;49182;50.788;7.318;2022-07-12T09:10:09;1.88;;;1.00;;
43124;SDS011;49182;50.788;7.318;2022-07-12T09:12:37;2.33;;;1.13;;
43124;SDS011;49182;50.788;7.318;2022-07-12T09:15:15;1.70;;;0.98;;
43124;SDS011;49182;50.788;7.318;2022-07-12T09:17:47;2.33;;;0.90;;
43124;SDS011;49182;50.788;7.318;2022-07-12T09:20:22;2.63;;;1.00;;
43124;SDS011;49182;50.788;7.318;2022-07-12T09:22:51;2.00;;;0.90;;
43124;SDS011;49182;50.788;7.318;2022-07-12T09:25:19;1.95;;;1.00;;
43124;SDS011;49182;50.788;7.318;2022-07-12T09:27:47;3.50;;;1.27;;
43124;SDS011;49182;50.788;7.318;2022-07-12T09:30:18;2.05;;;1.00;;
43124;SDS011;49182;50.788;7.318;2022-07-12T09:32:52;1.75;;;1.10;;
43124;SDS011;49182;50.788;7.318;2022-07-12T09:35:18;2.72;;;1.27;;
43124;SDS011;49182;50.788;7.318;2022-07-12T09:37:45;2.40;;;1.10;;
43124;SDS011;49182;50.788;7.318;2022-07-12T09:40:12;1.85;;;1.00;;
43124;SDS011;49182;50.788;7.318;2022-07-12T09:42:39;2.72;;;1.30;;
43124;SDS011;49182;50.788;7.318;2022-07-12T09:45:06;2.05;;;1.00;;
43124;SDS011;49182;50.788;7.318;2022-07-12T09:47:36;3.13;;;1.27;;
43124;SDS011;49182;50.788;7.318;2022-07-12T09:50:02;2.35;;;1.02;;
43124;SDS011;49182;50.788;7.318;2022-07-12T09:52:29;2.58;;;1.20;;
43124;SDS011;49182;50.788;7.318;2022-07-12T09:55:00;4.13;;;1.20;;
43124;SDS011;49182;50.788;7.318;2022-07-12T09:57:30;4.13;;;1.27;;
43124;SDS011;49182;50.788;7.318;2022-07-12T09:59:58;2.38;;;1.00;;
43124;SDS011;49182;50.788;7.318;2022-07-12T10:02:25;2.55;;;1.20;;
43124;SDS011;49182;50.788;7.318;2022-07-12T10:04:54;1.83;;;1.00;;
43124;SDS011;49182;50.788;7.318;2022-07-12T10:07:21;2.13;;;1.17;;
43124;SDS011;49182;50.788;7.318;2022-07-12T10:09:48;2.28;;;1.10;;
43124;SDS011;49182;50.788;7.318;2022-07-12T10:12:18;2.00;;;1.20;;
43124;SDS011;49182;50.788;7.318;2022-07-12T10:14:47;2.35;;;1.33;;
43124;SDS011;49182;50.788;7.318;2022-07-12T10:17:21;2.63;;;1.40;;
43124;SDS011;49182;50.788;7.318;2022-07-12T10:19:48;3.03;;;1.13;;
43124;SDS011;49182;50.788;7.318;2022-07-12T10:22:20;2.63;;;1.13;;
43124;SDS011;49182;50.788;7.318;2022-07-12T10:24:51;2.72;;;1.33;;
43124;SDS011;49182;50.788;7.318;2022-07-12T10:27:32;2.22;;;1.20;;
43124;SDS011;49182;50.788;7.318;2022-07-12T10:32:54;2.10;;;1.10;;
43124;SDS011;49182;50.788;7.318;2022-07-12T10:35:22;2.55;;;1.00;;
43124;SDS011;49182;50.788;7.318;2022-07-12T10:40:47;2.42;;;1.23;;
43124;SDS011;49182;50.788;7.318;2022-07-12T10:43:16;2.88;;;0.88;;
43124;SDS011;49182;50.788;7.318;2022-07-12T10:45:53;1.95;;;1.00;;
43124;SDS011;49182;50.788;7.318;2022-07-12T10:48:22;1.90;;;1.10;;
43124;SDS011;49182;50.788;7.318;2022-07-12T10:50:53;2.13;;;1.08;;
43124;SDS011;49182;50.788;7.318;2022-07-12T10:53:24;1.92;;;1.10;;
43124;SDS011;49182;50.788;7.318;2022-07-12T10:56:11;2.17;;;1.00;;
43124;SDS011;49182;50.788;7.318;2022-07-12T11:01:07;1.80;;;1.00;;
43124;SDS011;49182;50.788;7.318;2022-07-12T11:03:37;3.40;;;1.20;;
43124;SDS011;49182;50.788;7.318;2022-07-12T11:06:06;1.58;;;0.93;;
43124;SDS011;49182;50.788;7.318;2022-07-12T11:08:47;1.70;;;0.90;;
43124;SDS011;49182;50.788;7.318;2022-07-12T11:13:41;2.45;;;1.10;;
43124;SDS011;49182;50.788;7.318;2022-07-12T11:16:08;1.90;;;1.05;;
43124;SDS011;49182;50.788;7.318;2022-07-12T11:18:35;1.90;;;1.05;;
43124;SDS011;49182;50.788;7.318;2022-07-12T11:21:03;3.63;;;1.00;;
43124;SDS011;49182;50.788;7.318;2022-07-12T11:23:31;2.03;;;1.00;;
43124;SDS011;49182;50.788;7.318;2022-07-12T11:26:00;1.63;;;0.90;;
43124;SDS011;49182;50.788;7.318;2022-07-12T11:28:28;2.50;;;1.20;;
43124;SDS011;49182;50.788;7.318;2022-07-12T11:31:00;3.78;;;1.05;;
43124;SDS011;49182;50.788;7.318;2022-07-12T11:33:29;1.92;;;1.05;;
43124;SDS011;49182;50.788;7.318;2022-07-12T11:35:56;1.67;;;0.90;;
43124;SDS011;49182;50.788;7.318;2022-07-12T11:38:23;1.40;;;0.80;;
43124;SDS011;49182;50.788;7.318;2022-07-12T11:40:54;1.58;;;0.90;;
43124;SDS011;49182;50.788;7.318;2022-07-12T11:45:49;1.70;;;0.90;;
43124;SDS011;49182;50.788;7.318;2022-07-12T11:48:16;2.13;;;1.00;;
43124;SDS011;49182;50.788;7.318;2022-07-12T11:50:43;3.67;;;1.10;;
43124;SDS011;49182;50.788;7.318;2022-07-12T11:53:14;1.85;;;0.93;;
43124;SDS011;49182;50.788;7.318;2022-07-12T11:55:42;2.78;;;1.00;;
43124;SDS011;49182;50.788;7.318;2022-07-12T11:58:10;2.00;;;1.15;;
43124;SDS011;49182;50.788;7.318;2022-07-12T12:00:39;1.48;;;0.90;;
43124;SDS011;49182;50.788;7.318;2022-07-12T12:03:06;2.38;;;0.95;;
43124;SDS011;49182;50.788;7.318;2022-07-12T12:05:33;1.73;;;0.90;;
43124;SDS011;49182;50.788;7.318;2022-07-12T12:08:00;1.83;;;0.88;;
43124;SDS011;49182;50.788;7.318;2022-07-12T12:10:27;2.50;;;0.90;;
43124;SDS011;49182;50.788;7.318;2022-07-12T12:12:55;2.00;;;0.98;;
43124;SDS011;49182;50.788;7.318;2022-07-12T12:15:24;1.70;;;0.90;;
43124;SDS011;49182;50.788;7.318;2022-07-12T12:17:54;1.48;;;0.90;;
43124;SDS011;49182;50.788;7.318;2022-07-12T12:20:23;2.60;;;1.17;;
43124;SDS011;49182;50.788;7.318;2022-07-12T12:22:51;2.38;;;0.90;;
43124;SDS011;49182;50.788;7.318;2022-07-12T12:25:19;1.35;;;0.80;;
43124;SDS011;49182;50.788;7.318;2022-07-12T12:27:47;2.53;;;0.90;;
43124;SDS011;49182;50.788;7.318;2022-07-12T12:30:35;3.17;;;0.90;;
43124;SDS011;49182;50.788;7.318;2022-07-12T12:33:32;1.60;;;0.75;;
43124;SDS011;49182;50.788;7.318;2022-07-12T12:36:10;1.02;;;0.65;;
43124;SDS011;49182;50.788;7.318;2022-07-12T12:38:38;1.92;;;0.95;;
43124;SDS011;49182;50.788;7.318;2022-07-12T12:41:05;3.35;;;1.42;;
43124;SDS011;49182;50.788;7.318;2022-07-12T12:43:32;2.90;;;1.50;;
43124;SDS011;49182;50.788;7.318;2022-07-12T12:45:59;3.53;;;1.95;;
43124;SDS011;49182;50.788;7.318;2022-07-12T12:48:28;2.53;;;0.85;;
43124;SDS011;49182;50.788;7.318;2022-07-12T12:51:02;1.67;;;0.85;;
43124;SDS011;49182;50.788;7.318;2022-07-12T12:53:30;3.08;;;0.80;;
43124;SDS011;49182;50.788;7.318;2022-07-12T12:55:57;1.30;;;0.75;;
43124;SDS011;49182;50.788;7.318;2022-07-12T12:58:24;1.80;;;0.63;;
43124;SDS011;49182;50.788;7.318;2022-07-12T13:00:52;1.25;;;0.80;;
43124;SDS011;49182;50.788;7.318;2022-07-12T13:03:20;2.22;;;1.00;;
43124;SDS011;49182;50.788;7.318;2022-07-12T13:05:49;1.77;;;0.80;;
43124;SDS011;49182;50.788;7.318;2022-07-12T13:08:16;1.60;;;0.63;;
43124;SDS011;49182;50.788;7.318;2022-07-12T13:10:44;1.58;;;0.80;;
43124;SDS011;49182;50.788;7.318;2022-07-12T13:13:12;2.72;;;0.70;;
43124;SDS011;49182;50.788;7.318;2022-07-12T13:15:44;1.70;;;0.90;;
43124;SDS011;49182;50.788;7.318;2022-07-12T13:18:11;1.02;;;0.70;;
43124;SDS011;49182;50.788;7.318;2022-07-12T13:20:38;2.05;;;0.90;;
43124;SDS011;49182;50.788;7.318;2022-07-12T13:23:06;2.50;;;0.68;;
43124;SDS011;49182;50.788;7.318;2022-07-12T13:25:33;1.38;;;0.80;;
43124;SDS011;49182;50.788;7.318;2022-07-12T13:27:59;1.13;;;0.70;;
43124;SDS011;49182;50.788;7.318;2022-07-12T13:30:26;1.20;;;0.70;;
43124;SDS011;49182;50.788;7.318;2022-07-12T13:32:52;1.73;;;0.73;;
43124;SDS011;49182;50.788;7.318;2022-07-12T13:35:20;1.23;;;0.70;;
43124;SDS011;49182;50.788;7.318;2022-07-12T13:37:46;0.75;;;0.57;;
43124;SDS011;49182;50.788;7.318;2022-07-12T13:40:22;1.88;;;0.60;;
43124;SDS011;49182;50.788;7.318;2022-07-12T13:42:49;1.27;;;0.68;;
43124;SDS011;49182;50.788;7.318;2022-07-12T13:45:18;1.05;;;0.60;;
43124;SDS011;49182;50.788;7.318;2022-07-12T13:47:46;1.10;;;0.60;;
43124;SDS011;49182;50.788;7.318;2022-07-12T13:50:14;1.25;;;0.60;;
43124;SDS011;49182;50.788;7.318;2022-07-12T13:52:42;1.75;;;0.60;;
43124;SDS011;49182;50.788;7.318;2022-07-12T13:55:10;0.60;;;0.50;;
43124;SDS011;49182;50.788;7.318;2022-07-12T13:57:42;1.42;;;0.70;;
43124;SDS011;49182;50.788;7.318;2022-07-12T14:00:10;1.35;;;0.70;;
43124;SDS011;49182;50.788;7.318;2022-07-12T14:02:39;1.17;;;0.63;;
43124;SDS011;49182;50.788;7.318;2022-07-12T14:05:08;1.85;;;0.80;;
43124;SDS011;49182;50.788;7.318;2022-07-12T14:07:36;1.58;;;0.73;;
43124;SDS011;49182;50.788;7.318;2022-07-12T14:10:03;1.80;;;0.70;;
43124;SDS011;49182;50.788;7.318;2022-07-12T14:12:31;0.90;;;0.50;;
43124;SDS011;49182;50.788;7.318;2022-07-12T14:14:59;3.67;;;1.80;;
43124;SDS011;49182;50.788;7.318;2022-07-12T14:17:26;1.27;;;0.60;;
43124;SDS011;49182;50.788;7.318;2022-07-12T14:19:53;1.10;;;0.60;;
43124;SDS011;49182;50.788;7.318;2022-07-12T14:22:19;0.70;;;0.60;;
43124;SDS011;49182;50.788;7.318;2022-07-12T14:24:46;5.82;;;0.70;;
43124;SDS011;49182;50.788;7.318;2022-07-12T14:27:13;2.63;;;1.35;;
43124;SDS011;49182;50.788;7.318;2022-07-12T14:29:39;1.27;;;0.60;;
43124;SDS011;49182;50.788;7.318;2022-07-12T14:32:07;2.25;;;0.85;;
43124;SDS011;49182;50.788;7.318;2022-07-12T14:34:34;1.50;;;0.65;;
43124;SDS011;49182;50.788;7.318;2022-07-12T14:37:01;1.50;;;0.60;;
43124;SDS011;49182;50.788;7.318;2022-07-12T14:39:28;1.40;;;0.60;;
43124;SDS011;49182;50.788;7.318;2022-07-12T14:41:54;2.53;;;0.68;;
43124;SDS011;49182;50.788;7.318;2022-07-12T14:44:21;3.38;;;0.73;;
43124;SDS011;49182;50.788;7.318;2022-07-12T14:46:48;1.40;;;0.70;;
43124;SDS011;49182;50.788;7.318;2022-07-12T14:49:17;2.25;;;0.68;;
43124;SDS011;49182;50.788;7.318;2022-07-12T14:51:44;1.13;;;0.65;;
43124;SDS011;49182;50.788;7.318;2022-07-12T14:54:11;1.35;;;0.60;;
43124;SDS011;49182;50.788;7.318;2022-07-12T14:56:38;4.95;;;0.70;;
43124;SDS011;49182;50.788;7.318;2022-07-12T14:59:05;2.20;;;0.60;;
43124;SDS011;49182;50.788;7.318;2022-07-12T15:01:32;2.72;;;0.70;;